Time;durP1;ratioP1;P1;durP2;ratioP2;P2;SDS_P1;SDS_P2;PMS_P1;PMS_P2;Temp;Humidity;BMP_temperature;BMP_pressure;BME280_temperature;BME280_humidity;BME280_pressure;Samples;Min_cycle;Max_cycle;Signal;HPM_P1;HPM_P2
2024/02/21 00:00:41;;;;;;;5.80;2.80;;;;;;;7.39;76.01;99093.79;105917;1256;74400;-27
2024/02/21 00:03:09;;;;;;;4.80;2.10;;;;;;;7.85;75.06;99095.02;105950;1251;72603;-27
2024/02/21 00:05:36;;;;;;;2.70;2.30;;;;;;;8.29;73.14;99094.02;105829;1250;61045;-27
2024/02/21 00:08:04;;;;;;;3.00;2.40;;;;;;;8.26;72.56;99091.50;105729;1256;61093;-27
2024/02/21 00:10:32;;;;;;;3.60;2.70;;;;;;;8.11;72.82;99092.17;105792;1258;73713;-27
2024/02/21 00:13:00;;;;;;;4.50;3.10;;;;;;;7.86;73.58;99090.80;105918;1252;74795;-27
2024/02/21 00:15:27;;;;;;;4.00;2.60;;;;;;;7.65;74.18;99090.85;105923;1255;73119;-27
2024/02/21 00:17:53;;;;;;;2.70;1.90;;;;;;;7.40;75.56;99081.84;105930;1251;61181;-27
2024/02/21 00:20:21;;;;;;;3.90;2.40;;;;;;;7.89;74.32;99085.06;105923;1262;61133;-27
2024/02/21 00:22:48;;;;;;;3.00;2.30;;;;;;;8.32;72.75;99088.45;106027;1254;74350;-27
2024/02/21 00:25:15;;;;;;;3.10;2.70;;;;;;;8.25;72.33;99086.02;105846;1257;74140;-27
2024/02/21 00:27:42;;;;;;;3.60;3.00;;;;;;;8.03;72.70;99081.84;105998;1251;71658;-28
2024/02/21 00:30:10;;;;;;;3.10;2.60;;;;;;;7.80;73.64;99078.27;105988;1256;61115;-27
2024/02/21 00:32:37;;;;;;;4.50;3.20;;;;;;;7.51;74.51;99078.34;105601;1260;61112;-27
2024/02/21 00:35:05;;;;;;;4.70;2.40;;;;;;;7.35;75.66;99078.54;105857;1254;73808;-27
2024/02/21 00:37:32;;;;;;;3.20;2.60;;;;;;;7.88;74.13;99080.10;105863;1251;74374;-27
2024/02/21 00:39:59;;;;;;;3.30;2.20;;;;;;;8.18;72.47;99080.61;105945;1255;72154;-27
2024/02/21 00:42:26;;;;;;;3.40;2.60;;;;;;;8.05;72.49;99076.35;105898;1257;61007;-27
2024/02/21 00:44:53;;;;;;;3.50;2.80;;;;;;;7.84;73.24;99073.96;105792;1257;61186;-27
2024/02/21 00:47:21;;;;;;;4.30;2.90;;;;;;;7.61;74.05;99078.16;105946;1254;73892;-27
2024/02/21 00:49:48;;;;;;;3.60;2.50;;;;;;;7.36;74.92;99077.27;105880;1260;74113;-27
2024/02/21 00:52:15;;;;;;;3.70;2.30;;;;;;;7.76;74.42;99070.54;105791;1252;72633;-27
2024/02/21 00:54:42;;;;;;;3.90;2.90;;;;;;;8.10;72.81;99075.00;105817;1254;61078;-27
2024/02/21 00:57:20;;;;;;;3.80;2.60;;;;;;;8.08;72.44;99073.55;105639;1266;61171;-27
2024/02/21 00:59:46;;;;;;;4.00;2.90;;;;;;;7.87;73.14;99071.34;105765;1255;73862;-27
2024/02/21 01:02:14;;;;;;;5.00;2.80;;;;;;;7.59;74.02;99070.50;105874;1257;73024;-28
2024/02/21 01:04:41;;;;;;;3.50;2.80;;;;;;;7.36;74.99;99070.53;105702;1254;72631;-27
2024/02/21 01:07:08;;;;;;;3.10;2.10;;;;;;;7.29;75.93;99070.10;105831;1251;61599;-27
2024/02/21 01:09:36;;;;;;;4.20;2.80;;;;;;;7.79;74.04;99064.33;105753;1253;61152;-28
2024/02/21 01:12:03;;;;;;;3.20;2.40;;;;;;;7.91;73.26;99064.02;105884;1254;73680;-27
2024/02/21 01:14:30;;;;;;;3.30;2.70;;;;;;;7.84;73.25;99062.79;105893;1256;73249;-27
2024/02/21 01:16:57;;;;;;;3.80;2.60;;;;;;;7.58;74.17;99061.11;105941;1257;72553;-27
2024/02/21 01:19:25;;;;;;;3.10;2.30;;;;;;;7.33;75.06;99062.41;105643;1256;61123;-27
2024/02/21 01:21:52;;;;;;;3.30;2.00;;;;;;;7.02;76.55;99061.39;105918;1254;61159;-28
2024/02/21 01:24:19;;;;;;;3.10;1.90;;;;;;;7.46;75.95;99062.77;105964;1251;73602;-27
2024/02/21 01:26:46;;;;;;;3.60;2.30;;;;;;;7.91;73.48;99062.77;105798;1255;73044;-27
2024/02/21 01:29:13;;;;;;;3.20;2.40;;;;;;;7.94;72.94;99061.77;105905;1254;72580;-27
2024/02/21 01:31:40;;;;;;;3.50;2.50;;;;;;;7.85;73.00;99062.18;105875;1256;61032;-28
2024/02/21 01:34:08;;;;;;;3.30;2.50;;;;;;;7.58;73.67;99060.92;105972;1256;61143;-27
2024/02/21 01:36:35;;;;;;;2.60;2.00;;;;;;;7.35;75.01;99062.49;105932;1250;73643;-27
2024/02/21 01:39:02;;;;;;;2.70;1.80;;;;;;;7.35;75.49;99061.29;105978;1254;74050;-27
2024/02/21 01:41:30;;;;;;;4.60;2.50;;;;;;;7.82;73.74;99057.00;105887;1257;72632;-27
2024/02/21 01:43:58;;;;;;;4.00;2.40;;;;;;;7.99;72.72;99057.07;105597;1257;61164;-27
2024/02/21 01:46:28;;;;;;;2.80;2.30;;;;;;;7.94;72.47;99060.37;105997;1261;61153;-27
2024/02/21 01:48:56;;;;;;;2.30;1.70;;;;;;;7.71;73.46;99059.31;105916;1251;73820;-27
2024/02/21 01:51:24;;;;;;;2.30;2.00;;;;;;;7.47;74.21;99062.55;105946;1256;73606;-27
2024/02/21 01:53:52;;;;;;;3.70;2.10;;;;;;;7.15;75.94;99065.21;105733;1258;72694;-27
2024/02/21 01:56:19;;;;;;;2.50;2.10;;;;;;;7.51;75.12;99064.66;105849;1257;61201;-27
2024/02/21 01:58:46;;;;;;;1.80;1.50;;;;;;;7.87;73.54;99066.70;105840;1254;61166;-27
2024/02/21 02:01:13;;;;;;;2.40;1.70;;;;;;;7.86;73.18;99066.27;105988;1251;73822;-27
2024/02/21 02:03:45;;;;;;;2.20;1.90;;;;;;;7.64;74.07;99066.07;105906;1254;74046;-27
2024/02/21 02:06:12;;;;;;;3.00;2.20;;;;;;;7.37;75.13;99070.31;105908;1254;72616;-27
2024/02/21 02:08:39;;;;;;;2.50;1.90;;;;;;;7.04;76.68;99069.71;105624;1256;61649;-27
2024/02/21 02:11:06;;;;;;;3.30;1.80;;;;;;;7.42;76.16;99068.20;105837;1254;61157;-27
2024/02/21 02:13:34;;;;;;;2.60;1.90;;;;;;;7.94;73.57;99063.41;106014;1254;73772;-27
2024/02/21 02:16:01;;;;;;;3.00;2.10;;;;;;;7.75;73.64;99060.80;105986;1256;74398;-30
2024/02/21 02:18:28;;;;;;;2.70;2.20;;;;;;;7.59;74.39;99065.12;105926;1251;72567;-27
2024/02/21 02:20:56;;;;;;;6.00;1.90;;;;;;;7.43;75.17;99066.80;105774;1257;61022;-27
2024/02/21 02:23:31;;;;;;;3.40;2.00;;;;;;;7.12;76.13;99064.52;105977;1257;61083;-26
2024/02/21 02:25:58;;;;;;;3.00;2.00;;;;;;;7.52;75.41;99060.65;105761;1258;73615;-26
2024/02/21 02:28:25;;;;;;;2.10;1.80;;;;;;;7.77;73.89;99056.33;105869;1257;74301;-26
2024/02/21 02:30:53;;;;;;;3.10;1.90;;;;;;;7.83;73.37;99056.59;105985;1251;72325;-27
2024/02/21 02:33:20;;;;;;;2.60;2.10;;;;;;;7.64;73.86;99057.93;105916;1251;61099;-26
2024/02/21 02:35:47;;;;;;;3.20;2.30;;;;;;;7.48;74.32;99061.62;105664;1257;61147;-26
2024/02/21 02:38:15;;;;;;;3.00;1.90;;;;;;;7.20;75.17;99060.15;105970;1255;73780;-27
2024/02/21 02:40:42;;;;;;;2.30;1.80;;;;;;;7.63;74.41;99061.58;105784;1256;74290;-27
2024/02/21 02:43:10;;;;;;;2.40;2.10;;;;;;;7.97;72.59;99061.88;105940;1254;73180;-27
2024/02/21 02:45:37;;;;;;;2.50;1.90;;;;;;;8.10;71.90;99068.38;105979;1254;61141;-27
2024/02/21 02:48:04;;;;;;;3.20;2.20;;;;;;;7.96;71.57;99066.91;105916;1254;61089;-27
2024/02/21 02:50:32;;;;;;;3.30;1.90;;;;;;;7.68;72.27;99074.21;105771;1251;73867;-27
2024/02/21 02:52:59;;;;;;;4.80;2.60;;;;;;;7.42;73.31;99076.85;105908;1251;74486;-27
2024/02/21 02:55:27;;;;;;;2.70;1.90;;;;;;;7.08;74.49;99076.16;105903;1257;72638;-27
2024/02/21 02:57:55;;;;;;;2.40;2.00;;;;;;;7.52;74.19;99074.65;105974;1251;61054;-27
2024/02/21 03:00:23;;;;;;;2.40;2.00;;;;;;;8.01;71.93;99077.14;105616;1257;61096;-27
2024/02/21 03:02:51;;;;;;;2.20;1.60;;;;;;;7.96;71.05;99077.48;105852;1254;74372;-26
2024/02/21 03:05:19;;;;;;;3.30;2.10;;;;;;;7.74;71.87;99077.63;105844;1251;74089;-27
2024/02/21 03:07:47;;;;;;;3.10;2.20;;;;;;;7.43;72.87;99082.68;105654;1259;72564;-26
2024/02/21 03:10:16;;;;;;;3.70;2.60;;;;;;;7.06;74.38;99082.70;105866;1257;61147;-26
2024/02/21 03:12:43;;;;;;;2.60;1.80;;;;;;;6.86;75.40;99083.63;105679;1257;61103;-26
2024/02/21 03:15:12;;;;;;;2.30;1.90;;;;;;;7.31;74.60;99080.53;105904;1251;73879;-27
2024/02/21 03:17:40;;;;;;;2.60;1.70;;;;;;;7.71;72.43;99078.50;105708;1251;74299;-27
2024/02/21 03:20:11;;;;;;;4.60;2.50;;;;;;;7.73;71.84;99082.16;105891;1256;71050;-27
2024/02/21 03:22:40;;;;;;;4.70;2.50;;;;;;;7.45;72.71;99086.66;105990;1254;61146;-26
2024/02/21 03:25:09;;;;;;;3.40;2.40;;;;;;;7.17;73.23;99085.94;105816;1258;61160;-27
2024/02/21 03:27:36;;;;;;;3.30;2.40;;;;;;;6.92;74.43;99088.59;105796;1260;72288;-26
2024/02/21 03:30:05;;;;;;;2.60;1.90;;;;;;;6.76;75.07;99085.70;105987;1255;74879;-27
2024/02/21 03:32:33;;;;;;;2.40;1.90;;;;;;;7.37;73.81;99089.62;105688;1251;70341;-26
2024/02/21 03:35:00;;;;;;;2.10;1.90;;;;;;;7.83;71.77;99090.64;105998;1254;61048;-27
2024/02/21 03:37:28;;;;;;;3.30;2.40;;;;;;;7.91;71.06;99092.52;105843;1251;61160;-27
2024/02/21 03:39:55;;;;;;;3.30;2.20;;;;;;;7.69;71.27;99094.35;105853;1254;73597;-27
2024/02/21 03:42:22;;;;;;;5.10;2.60;;;;;;;7.46;72.29;99096.27;105865;1254;74147;-27
2024/02/21 03:44:49;;;;;;;4.70;2.60;;;;;;;7.21;73.33;99097.89;105823;1252;72362;-27
2024/02/21 03:47:16;;;;;;;3.30;2.30;;;;;;;6.94;74.34;99099.36;105943;1254;61157;-26
2024/02/21 03:49:43;;;;;;;2.30;1.80;;;;;;;7.40;73.71;99100.79;105901;1254;61534;-26
2024/02/21 03:52:11;;;;;;;2.90;2.00;;;;;;;7.95;71.47;99099.33;106020;1251;73626;-27
2024/02/21 03:54:38;;;;;;;3.50;2.10;;;;;;;7.98;70.72;99100.50;105855;1257;74089;-27
2024/02/21 03:57:06;;;;;;;4.70;2.50;;;;;;;7.81;71.01;99099.46;106007;1254;72668;-27
2024/02/21 03:59:33;;;;;;;3.60;2.70;;;;;;;7.56;71.59;99097.83;105772;1251;61040;-27
2024/02/21 04:02:00;;;;;;;5.40;2.70;;;;;;;7.31;72.64;99098.27;105889;1254;61153;-27
2024/02/21 04:04:27;;;;;;;3.10;2.20;;;;;;;7.05;73.47;99099.17;105878;1252;73676;-28
2024/02/21 04:06:54;;;;;;;3.00;1.90;;;;;;;7.43;73.29;99104.94;105958;1254;74108;-28
2024/02/21 04:09:21;;;;;;;3.20;2.30;;;;;;;7.95;71.04;99108.30;106001;1252;72456;-28
2024/02/21 04:11:48;;;;;;;4.20;2.70;;;;;;;7.98;70.57;99104.51;105969;1262;61047;-28
2024/02/21 04:14:15;;;;;;;6.30;2.70;;;;;;;7.75;71.00;99106.73;105994;1254;61169;-28
2024/02/21 04:16:42;;;;;;;3.30;2.30;;;;;;;7.49;71.91;99102.62;106004;1251;73661;-28
2024/02/21 04:19:09;;;;;;;3.80;2.50;;;;;;;7.22;72.65;99104.41;106002;1251;74714;-28
2024/02/21 04:21:36;;;;;;;3.60;2.80;;;;;;;6.93;73.78;99108.23;105991;1252;73049;-28
2024/02/21 04:24:05;;;;;;;6.00;2.20;;;;;;;6.76;74.30;99112.63;105866;1254;61120;-28
2024/02/21 04:26:32;;;;;;;4.10;2.20;;;;;;;7.25;74.17;99117.05;105923;1251;61129;-28
2024/02/21 04:29:00;;;;;;;4.80;2.70;;;;;;;7.78;72.02;99118.46;106002;1251;73793;-28
2024/02/21 04:31:27;;;;;;;3.50;3.00;;;;;;;7.79;71.81;99119.95;105850;1257;74224;-29
2024/02/21 04:33:54;;;;;;;4.00;3.10;;;;;;;7.63;72.21;99119.63;105938;1252;72664;-28
2024/02/21 04:36:21;;;;;;;3.50;2.80;;;;;;;7.42;72.94;99120.54;105980;1251;61166;-28
2024/02/21 04:38:50;;;;;;;5.00;3.10;;;;;;;7.21;73.72;99120.57;105811;1254;61750;-28
2024/02/21 04:41:17;;;;;;;3.50;2.60;;;;;;;6.91;74.94;99122.14;105831;1251;74096;-28
2024/02/21 04:43:46;;;;;;;4.70;3.10;;;;;;;7.29;74.92;99120.52;105941;1251;74141;-27
2024/02/21 04:46:13;;;;;;;5.30;3.10;;;;;;;7.69;73.47;99116.47;105712;1251;71732;-28
2024/02/21 04:48:40;;;;;;;5.90;3.30;;;;;;;7.75;72.88;99116.58;105874;1251;61039;-28
2024/02/21 04:51:07;;;;;;;5.30;3.30;;;;;;;7.63;73.12;99113.27;105947;1254;61118;-28
2024/02/21 04:53:35;;;;;;;5.10;4.10;;;;;;;7.41;73.81;99116.48;105903;1251;73613;-28
2024/02/21 04:56:02;;;;;;;7.20;4.30;;;;;;;7.14;74.90;99121.89;105997;1254;74233;-27
2024/02/21 04:58:29;;;;;;;3.70;2.70;;;;;;;6.97;75.85;99126.09;105959;1251;72643;-28
2024/02/21 05:00:57;;;;;;;4.40;3.10;;;;;;;7.59;74.39;99124.91;105964;1251;61133;-28
2024/02/21 05:03:25;;;;;;;4.30;3.10;;;;;;;8.10;72.30;99125.63;105896;1255;61169;-28
2024/02/21 05:05:52;;;;;;;6.30;3.50;;;;;;;8.06;71.64;99122.45;106018;1251;73797;-28
2024/02/21 05:08:19;;;;;;;4.90;3.40;;;;;;;7.87;72.19;99127.18;105996;1254;74326;-27
2024/02/21 05:10:46;;;;;;;4.70;3.30;;;;;;;7.56;73.23;99131.17;105962;1251;72687;-27
2024/02/21 05:13:13;;;;;;;11.10;4.60;;;;;;;7.31;74.25;99130.77;105651;1251;61114;-28
2024/02/21 05:15:40;;;;;;;6.10;3.10;;;;;;;7.04;75.50;99133.23;105881;1254;61096;-28
2024/02/21 05:18:07;;;;;;;3.90;3.00;;;;;;;7.44;75.03;99135.26;105962;1251;74380;-28
2024/02/21 05:20:35;;;;;;;3.70;3.10;;;;;;;7.87;72.87;99137.39;105924;1251;74400;-28
2024/02/21 05:23:03;;;;;;;5.60;3.30;;;;;;;7.87;72.57;99138.61;105910;1254;73165;-28
2024/02/21 05:25:30;;;;;;;5.30;3.60;;;;;;;7.68;73.05;99136.92;105603;1251;61506;-28
2024/02/21 05:28:01;;;;;;;5.50;3.60;;;;;;;7.43;73.94;99143.16;105997;1253;61148;-28
2024/02/21 05:30:29;;;;;;;5.60;3.60;;;;;;;7.19;74.90;99144.87;105931;1251;73254;-28
2024/02/21 05:32:56;;;;;;;5.60;3.00;;;;;;;7.02;75.60;99146.11;106004;1251;74310;-28
2024/02/21 05:35:27;;;;;;;5.30;3.50;;;;;;;7.48;74.80;99146.40;105880;1253;71577;-27
2024/02/21 05:37:55;;;;;;;3.80;2.70;;;;;;;7.93;72.77;99149.45;105514;1255;61186;-27
2024/02/21 05:40:23;;;;;;;6.10;3.20;;;;;;;7.91;72.35;99151.33;105843;1257;61173;-28
2024/02/21 05:42:51;;;;;;;3.90;3.30;;;;;;;7.69;72.84;99148.44;105951;1251;73824;-27
2024/02/21 05:45:18;;;;;;;6.40;3.80;;;;;;;7.44;73.80;99146.49;105871;1251;72865;-27
2024/02/21 05:47:45;;;;;;;7.70;5.00;;;;;;;7.24;74.67;99150.89;105960;1254;72713;-27
2024/02/21 05:50:13;;;;;;;4.20;3.20;;;;;;;7.02;75.76;99151.33;105984;1251;61159;-27
2024/02/21 05:52:40;;;;;;;4.70;3.80;;;;;;;7.52;74.43;99156.52;105924;1256;61154;-27
2024/02/21 05:55:08;;;;;;;5.70;3.80;;;;;;;7.75;73.29;99152.91;105900;1251;74185;-27
2024/02/21 05:57:36;;;;;;;5.60;3.80;;;;;;;7.74;72.99;99142.77;105840;1252;73033;-27
2024/02/21 06:00:05;;;;;;;4.90;3.90;;;;;;;7.46;73.58;99149.44;105961;1251;72633;-27
2024/02/21 06:02:39;;;;;;;4.60;3.30;;;;;;;7.20;74.21;99158.09;105729;1253;61215;-27
2024/02/21 06:05:08;;;;;;;6.20;3.20;;;;;;;6.95;75.49;99159.55;105928;1257;61173;-27
2024/02/21 06:07:35;;;;;;;4.40;2.90;;;;;;;7.33;74.55;99160.52;105818;1251;72722;-27
2024/02/21 06:10:03;;;;;;;6.00;3.40;;;;;;;7.61;72.67;99161.08;105949;1254;74309;-27
2024/02/21 06:12:30;;;;;;;6.20;3.10;;;;;;;7.56;72.43;99164.68;105722;1254;72562;-27
2024/02/21 06:14:57;;;;;;;4.10;2.70;;;;;;;7.38;72.67;99161.25;106005;1251;61044;-26
2024/02/21 06:17:25;;;;;;;3.70;3.00;;;;;;;7.21;73.44;99164.75;106036;1251;61080;-26
2024/02/21 06:19:52;;;;;;;3.40;2.70;;;;;;;6.98;74.48;99167.80;106018;1254;73590;-26
2024/02/21 06:22:20;;;;;;;4.00;3.20;;;;;;;7.40;73.86;99171.80;105986;1251;74630;-26
2024/02/21 06:24:47;;;;;;;4.50;3.40;;;;;;;7.77;72.38;99173.70;105937;1254;72634;-27
2024/02/21 06:27:16;;;;;;;5.40;4.00;;;;;;;7.69;72.61;99174.17;105991;1254;61152;-27
2024/02/21 06:29:43;;;;;;;6.80;4.60;;;;;;;7.51;73.73;99175.80;106007;1254;61260;-26
2024/02/21 06:32:10;;;;;;;6.90;5.00;;;;;;;7.26;75.02;99170.88;106022;1251;74237;-26
2024/02/21 06:34:37;;;;;;;6.20;4.00;;;;;;;7.03;76.26;99176.77;106019;1254;74860;-26
2024/02/21 06:37:04;;;;;;;6.20;4.70;;;;;;;7.39;75.71;99180.80;105768;1253;72634;-26
2024/02/21 06:39:31;;;;;;;5.40;4.00;;;;;;;7.69;74.27;99177.29;105862;1251;61052;-27
2024/02/21 06:41:58;;;;;;;7.40;5.40;;;;;;;7.73;73.57;99177.05;105802;1254;61176;-27
2024/02/21 06:44:31;;;;;;;6.80;5.00;;;;;;;7.60;74.18;99181.36;105904;1251;73828;-27
2024/02/21 06:46:59;;;;;;;5.50;4.10;;;;;;;7.34;75.26;99183.61;105929;1256;74704;-25
2024/02/21 06:49:27;;;;;;;7.80;4.90;;;;;;;7.15;76.07;99179.09;105971;1256;72683;-27
2024/02/21 06:51:54;;;;;;;6.60;4.00;;;;;;;7.65;74.87;99179.47;105903;1254;61499;-27
2024/02/21 06:54:21;;;;;;;5.80;4.20;;;;;;;8.07;72.94;99178.73;105956;1252;61144;-27
2024/02/21 06:56:48;;;;;;;6.20;4.60;;;;;;;8.09;72.58;99189.33;105999;1251;74364;-27
2024/02/21 06:59:16;;;;;;;7.50;5.40;;;;;;;7.97;72.66;99184.73;105940;1254;74382;-27
2024/02/21 07:01:48;;;;;;;7.20;4.40;;;;;;;7.78;73.62;99181.89;106023;1251;74484;-27
2024/02/21 07:04:15;;;;;;;9.00;5.60;;;;;;;7.61;74.03;99183.17;105672;1251;61257;-27
2024/02/21 07:06:43;;;;;;;7.20;5.00;;;;;;;7.53;75.12;99186.18;106025;1253;61620;-27
2024/02/21 07:09:10;;;;;;;7.30;4.30;;;;;;;8.04;73.39;99189.61;106023;1251;75407;-27
2024/02/21 07:11:38;;;;;;;9.00;5.90;;;;;;;8.36;71.95;99197.17;105926;1254;75987;-27
2024/02/21 07:14:05;;;;;;;7.70;5.80;;;;;;;8.35;72.17;99201.20;105735;1254;74479;-27
2024/02/21 07:16:33;;;;;;;9.00;6.00;;;;;;;8.13;72.75;99204.08;105822;1251;62060;-27
2024/02/21 07:19:01;;;;;;;9.80;6.60;;;;;;;7.85;73.71;99196.98;105522;1256;217773;-27
2024/02/21 07:21:28;;;;;;;9.30;6.00;;;;;;;7.55;74.83;99198.10;105628;1251;73956;-26
2024/02/21 07:23:55;;;;;;;8.60;6.00;;;;;;;7.67;74.72;99194.56;105900;1252;74992;-27
2024/02/21 07:26:24;;;;;;;8.80;5.90;;;;;;;8.07;73.34;99199.13;105983;1252;72635;-27
2024/02/21 07:28:51;;;;;;;10.50;6.90;;;;;;;8.13;72.98;99193.90;105950;1251;61047;-27
2024/02/21 07:31:19;;;;;;;7.70;5.80;;;;;;;8.07;73.20;99197.73;105995;1253;61918;-27
2024/02/21 07:33:46;;;;;;;8.10;5.60;;;;;;;7.88;73.67;99199.36;105996;1251;75631;-27
2024/02/21 07:36:27;;;;;;;8.80;5.30;;;;;;;7.75;74.80;99200.74;105885;1254;76553;-26
2024/02/21 07:38:55;;;;;;;7.20;5.40;;;;;;;8.36;72.66;99206.33;105691;1251;74250;-27
2024/02/21 07:41:22;;;;;;;7.50;5.00;;;;;;;8.63;71.66;99204.82;105877;1251;62009;-26
2024/02/21 07:43:50;;;;;;;10.20;6.20;;;;;;;8.42;72.09;99200.89;105782;1254;61917;-27
2024/02/21 07:46:20;;;;;;;12.50;6.20;;;;;;;8.25;72.93;99201.16;105977;1252;74863;-27
2024/02/21 07:48:48;;;;;;;10.40;7.10;;;;;;;8.15;74.24;99205.52;105878;1254;75012;-27
2024/02/21 07:51:19;;;;;;;8.60;5.70;;;;;;;8.07;74.92;99206.73;105771;1256;74027;-27
2024/02/21 07:53:47;;;;;;;9.80;6.20;;;;;;;8.70;72.51;99206.20;105924;1251;62070;-27
2024/02/21 07:56:15;;;;;;;9.40;7.20;;;;;;;8.77;71.14;99209.75;105795;1257;61869;-27
2024/02/21 07:58:42;;;;;;;8.80;6.40;;;;;;;8.63;71.69;99212.61;105932;1254;73035;-27
2024/02/21 08:01:10;;;;;;;7.80;5.50;;;;;;;8.35;71.85;99212.74;105995;1254;76254;-27
2024/02/21 08:03:38;;;;;;;11.60;7.50;;;;;;;8.29;72.51;99214.20;105986;1254;74555;-27
2024/02/21 08:06:05;;;;;;;6.90;5.20;;;;;;;8.07;73.88;99209.84;105962;1254;63601;-27
2024/02/21 08:08:33;;;;;;;10.00;6.80;;;;;;;8.47;73.17;99214.88;105908;1253;62143;-28
2024/02/21 08:11:00;;;;;;;6.20;4.80;;;;;;;8.83;70.85;99207.38;105754;1251;75283;-28
2024/02/21 08:13:28;;;;;;;8.00;5.70;;;;;;;8.73;71.33;99212.23;105861;1251;76107;-28
2024/02/21 08:15:57;;;;;;;7.10;5.60;;;;;;;8.64;71.40;99213.05;105935;1251;74269;-28
2024/02/21 08:18:24;;;;;;;8.60;5.70;;;;;;;8.34;71.18;99211.10;105810;1252;61916;-28
2024/02/21 08:20:51;;;;;;;7.00;4.30;;;;;;;8.04;72.28;99211.44;105991;1251;62262;-28
2024/02/21 08:23:19;;;;;;;8.30;4.90;;;;;;;8.28;71.81;99208.78;106021;1251;75467;-28
2024/02/21 08:25:46;;;;;;;9.10;5.60;;;;;;;8.58;70.35;99209.14;106053;1251;76255;-28
2024/02/21 08:28:13;;;;;;;8.10;5.90;;;;;;;8.60;70.01;99212.84;106001;1251;74348;-28
2024/02/21 08:30:44;;;;;;;9.80;4.90;;;;;;;8.28;70.69;99211.06;105900;1251;61861;-28
2024/02/21 08:33:11;;;;;;;10.20;6.00;;;;;;;8.12;71.18;99208.48;105714;1259;62218;-28
2024/02/21 08:35:38;;;;;;;8.40;4.90;;;;;;;7.90;72.11;99209.26;106041;1251;75745;-28
2024/02/21 08:38:06;;;;;;;10.40;6.30;;;;;;;8.28;71.82;99210.15;105902;1251;76177;-28
2024/02/21 08:40:35;;;;;;;7.00;5.00;;;;;;;8.52;69.90;99210.25;105944;1252;74281;-28
2024/02/21 08:43:03;;;;;;;9.10;5.90;;;;;;;8.43;70.27;99212.23;105952;1254;62192;-28
2024/02/21 08:45:30;;;;;;;9.70;6.20;;;;;;;8.43;70.17;99214.47;105974;1251;61474;-28
2024/02/21 08:47:57;;;;;;;8.00;6.00;;;;;;;8.30;70.53;99209.88;106036;1251;75037;-28
2024/02/21 08:50:25;;;;;;;8.20;6.40;;;;;;;8.10;71.35;99208.97;105952;1257;76172;-28
2024/02/21 08:52:56;;;;;;;6.80;4.50;;;;;;;8.20;71.14;99209.49;105890;1254;73417;-28
2024/02/21 08:55:24;;;;;;;9.50;5.90;;;;;;;8.73;69.46;99214.71;105948;1252;61932;-28
2024/02/21 08:57:51;;;;;;;8.00;6.10;;;;;;;8.93;68.80;99213.27;105959;1254;61883;-28
2024/02/21 09:07:58;;;;;;;7.10;5.00;;;;;;;8.47;70.84;99217.18;102711;1293;599228;-28
2024/02/21 09:10:26;;;;;;;8.30;5.10;;;;;;;8.43;70.18;99217.92;104792;1275;61583;-28
2024/02/21 09:12:54;;;;;;;6.10;4.70;;;;;;;8.91;68.08;99218.91;104858;1270;61062;-28
2024/02/21 09:15:24;;;;;;;8.50;6.10;;;;;;;9.02;68.42;99218.52;104768;1267;73832;-27
2024/02/21 09:17:52;;;;;;;6.00;4.00;;;;;;;8.99;67.67;99220.11;104902;1269;77428;-27
2024/02/21 09:20:37;;;;;;;7.80;5.40;;;;;;;8.90;67.22;99222.67;104706;1267;200061;-27
2024/02/21 09:23:05;;;;;;;8.70;5.80;;;;;;;8.64;68.95;99221.69;104894;1264;62667;-27
2024/02/21 09:25:33;;;;;;;7.60;4.70;;;;;;;8.57;70.12;99225.13;105184;1269;61603;-27
2024/02/21 09:28:02;;;;;;;5.50;4.30;;;;;;;8.99;68.64;99221.84;105162;1264;74696;-27
2024/02/21 09:30:30;;;;;;;7.80;4.70;;;;;;;9.22;66.78;99225.52;104990;1264;78514;-27
2024/02/21 09:33:02;;;;;;;8.70;5.40;;;;;;;9.23;66.13;99220.76;105216;1269;75417;-27
2024/02/21 09:35:33;;;;;;;8.50;5.40;;;;;;;9.05;67.38;99228.50;105148;1270;62967;-27
2024/02/21 09:38:02;;;;;;;7.70;4.90;;;;;;;8.82;67.92;99226.52;104865;1270;62719;-27
2024/02/21 09:40:31;;;;;;;8.30;5.40;;;;;;;8.72;67.99;99226.33;104952;1264;75765;-28
2024/02/21 09:43:04;;;;;;;7.00;3.80;;;;;;;8.61;68.39;99226.96;105188;1269;77111;-27
2024/02/21 09:45:34;;;;;;;7.20;4.60;;;;;;;8.99;67.64;99228.10;104949;1269;75066;-27
2024/02/21 09:48:14;;;;;;;6.90;4.50;;;;;;;9.28;65.78;99223.05;104875;1265;62806;-27
2024/02/21 09:50:43;;;;;;;6.10;4.20;;;;;;;9.27;65.90;99222.45;104893;1265;61241;-27
2024/02/21 09:53:12;;;;;;;8.90;5.90;;;;;;;9.07;66.67;99224.88;104954;1264;73479;-27
2024/02/21 09:55:41;;;;;;;6.80;5.40;;;;;;;8.72;67.75;99221.33;104871;1272;74269;-27
2024/02/21 09:58:09;;;;;;;8.60;5.60;;;;;;;8.49;68.55;99218.29;105238;1269;75433;-27
2024/02/21 10:00:37;;;;;;;5.70;3.70;;;;;;;8.47;68.16;99221.50;104897;1263;62930;-29
2024/02/21 10:03:08;;;;;;;5.10;4.10;;;;;;;8.89;66.70;99220.83;105160;1267;61156;-28
2024/02/21 10:05:37;;;;;;;6.60;3.80;;;;;;;8.89;65.99;99214.76;105214;1266;77085;-28
2024/02/21 10:08:06;;;;;;;7.10;4.40;;;;;;;8.68;66.52;99213.10;105156;1269;77054;-28
2024/02/21 10:10:44;;;;;;;4.60;4.10;;;;;;;8.69;67.06;99215.10;104930;1265;73848;-28
2024/02/21 10:13:27;;;;;;;5.90;4.60;;;;;;;8.47;67.93;99215.98;104860;1270;61177;-28
2024/02/21 10:16:08;;;;;;;7.50;4.30;;;;;;;8.22;67.96;99211.77;104832;1264;61549;-28
2024/02/21 10:18:36;;;;;;;9.30;5.10;;;;;;;8.59;67.63;99211.86;104817;1271;75852;-28
2024/02/21 10:21:06;;;;;;;6.30;4.00;;;;;;;8.91;65.54;99210.28;104858;1263;78486;-28
2024/02/21 10:23:48;;;;;;;6.10;3.70;;;;;;;8.82;64.98;99203.27;104894;1268;74071;-28
2024/02/21 10:26:17;;;;;;;6.40;4.20;;;;;;;8.82;66.34;99214.73;104889;1269;61920;-28
2024/02/21 10:28:47;;;;;;;7.00;4.30;;;;;;;8.63;66.01;99206.92;104865;1264;62353;-28
2024/02/21 10:31:25;;;;;;;5.10;3.90;;;;;;;8.48;66.92;99209.45;104932;1272;75683;-28
2024/02/21 10:33:55;;;;;;;6.40;4.80;;;;;;;8.33;67.90;99203.91;104883;1264;75546;-28
2024/02/21 10:36:24;;;;;;;5.10;3.60;;;;;;;8.59;68.23;99200.40;105139;1269;75608;-28
2024/02/21 10:38:53;;;;;;;3.30;3.00;;;;;;;9.15;66.30;99199.92;105157;1264;61801;-28
2024/02/21 10:41:23;;;;;;;7.30;5.10;;;;;;;9.31;64.50;99200.33;105128;1264;62910;-27
2024/02/21 10:43:53;;;;;;;4.50;3.40;;;;;;;9.38;64.32;99199.45;104910;1263;75133;-28
2024/02/21 10:46:23;;;;;;;7.70;5.00;;;;;;;9.28;64.03;99194.61;104927;1269;75661;-28
2024/02/21 10:49:17;;;;;;;4.70;3.20;;;;;;;9.04;64.94;99189.25;104933;1270;74555;-28
2024/02/21 10:51:45;;;;;;;6.80;3.60;;;;;;;8.74;65.53;99188.63;105075;1265;62936;-28
2024/02/21 10:54:30;;;;;;;4.30;3.00;;;;;;;8.56;67.34;99188.66;105150;1263;62943;-27
2024/02/21 10:56:58;;;;;;;4.90;2.90;;;;;;;9.06;66.18;99190.34;104903;1269;75770;-27
2024/02/21 10:59:27;;;;;;;6.50;3.40;;;;;;;9.65;65.32;99196.78;104943;1269;76258;-28
2024/02/21 11:01:55;;;;;;;5.40;3.10;;;;;;;9.91;64.33;99192.58;105069;1269;74571;-28
2024/02/21 11:04:26;;;;;;;5.80;2.70;;;;;;;9.68;62.23;99184.45;104947;1269;61234;-28
2024/02/21 11:06:54;;;;;;;4.30;3.20;;;;;;;9.27;62.68;99178.73;104832;1272;62915;-27
2024/02/21 11:09:31;;;;;;;3.50;2.70;;;;;;;9.18;63.51;99181.02;104840;1270;74007;-28
2024/02/21 11:12:04;;;;;;;5.00;2.90;;;;;;;8.85;65.70;99176.23;104852;1271;75578;-28
2024/02/21 11:14:35;;;;;;;3.30;2.80;;;;;;;8.84;66.19;99176.98;104889;1270;74157;-28
2024/02/21 11:17:03;;;;;;;2.00;1.50;;;;;;;8.94;65.75;99174.59;104875;1269;63394;-27
2024/02/21 11:19:32;;;;;;;2.60;2.00;;;;;;;9.35;62.83;99178.33;104926;1265;61829;-27
2024/02/21 11:22:01;;;;;;;2.20;1.80;;;;;;;9.27;62.17;99171.67;105137;1268;75769;-27
2024/02/21 11:24:32;;;;;;;3.90;2.60;;;;;;;9.34;63.65;99177.00;105003;1269;76948;-27
2024/02/21 11:27:20;;;;;;;2.90;2.00;;;;;;;9.17;62.35;99172.40;104796;1270;74327;-27
2024/02/21 11:29:52;;;;;;;3.80;2.30;;;;;;;8.94;62.32;99171.29;104674;1280;61198;-27
2024/02/21 11:32:20;;;;;;;5.00;2.30;;;;;;;8.78;63.49;99169.53;104815;1269;61285;-27
2024/02/21 11:35:06;;;;;;;3.90;2.70;;;;;;;8.47;64.28;99166.46;104971;1269;75830;-27
2024/02/21 11:37:39;;;;;;;3.30;2.50;;;;;;;8.25;65.50;99165.58;104838;1270;77147;-27
2024/02/21 11:40:09;;;;;;;2.30;2.10;;;;;;;8.68;64.79;99169.85;105046;1269;75560;-27
2024/02/21 11:42:39;;;;;;;3.70;2.40;;;;;;;9.11;62.38;99165.91;104878;1264;61550;-27
2024/02/21 11:45:11;;;;;;;3.60;2.50;;;;;;;9.20;61.98;99165.98;105094;1264;62644;-27
2024/02/21 11:47:41;;;;;;;3.60;2.20;;;;;;;9.28;61.78;99164.13;104819;1264;74499;-27